createdAt,value
2017-08-15T00:00:56.389Z,958.79
2017-08-15T00:01:56.418Z,958.76
2017-08-15T00:02:56.379Z,958.8
2017-08-15T00:03:56.374Z,958.78
2017-08-15T00:04:56.368Z,958.78
2017-08-15T00:05:56.364Z,958.81
2017-08-15T00:06:56.358Z,958.78
2017-08-15T00:07:56.353Z,958.78
2017-08-15T00:08:56.348Z,958.76
2017-08-15T00:09:56.343Z,958.77
2017-08-15T00:10:56.359Z,958.72
2017-08-15T00:11:56.333Z,958.77
2017-08-15T00:12:56.328Z,958.7
2017-08-15T00:13:56.322Z,958.69
2017-08-15T00:14:56.317Z,958.71
2017-08-15T00:15:56.311Z,958.71
2017-08-15T00:16:56.306Z,958.72
2017-08-15T00:17:56.316Z,958.7
2017-08-15T00:18:56.310Z,958.71
2017-08-15T00:19:56.331Z,958.71
2017-08-15T00:20:56.285Z,958.69
2017-08-15T00:21:56.281Z,958.68
2017-08-15T00:22:56.276Z,958.69
2017-08-15T00:23:56.270Z,958.69
2017-08-15T00:24:56.270Z,958.68
2017-08-15T00:25:56.259Z,958.69
2017-08-15T00:26:56.256Z,958.65
2017-08-15T00:27:56.250Z,958.65
2017-08-15T00:28:56.245Z,958.63
2017-08-15T00:29:56.238Z,958.65
2017-08-15T00:30:56.233Z,958.64
2017-08-15T00:31:56.228Z,958.64
2017-08-15T00:32:56.224Z,958.62
2017-08-15T00:33:56.218Z,958.58
2017-08-15T00:34:56.214Z,958.58
2017-08-15T00:35:56.208Z,958.61
2017-08-15T00:36:56.218Z,958.55
2017-08-15T00:37:56.199Z,958.56
2017-08-15T00:38:56.194Z,958.52
2017-08-15T00:39:56.188Z,958.48
2017-08-15T00:40:56.182Z,958.55
2017-08-15T00:41:56.177Z,958.53
2017-08-15T00:42:56.172Z,958.5
2017-08-15T00:43:56.167Z,958.47
2017-08-15T00:44:56.166Z,958.47
2017-08-15T00:45:56.160Z,958.46
2017-08-15T00:46:56.153Z,958.5
2017-08-15T00:47:56.149Z,958.46
2017-08-15T00:48:56.144Z,958.47
2017-08-15T00:49:56.139Z,958.48
2017-08-15T00:50:56.134Z,958.47
2017-08-15T00:51:56.128Z,958.48
2017-08-15T00:52:56.125Z,958.46
2017-08-15T00:53:56.117Z,958.45
2017-08-15T00:54:56.116Z,958.44
2017-08-15T00:55:56.108Z,958.44
2017-08-15T00:56:56.103Z,958.45
2017-08-15T00:57:56.101Z,958.44
2017-08-15T00:58:56.094Z,958.47
2017-08-15T00:59:56.089Z,958.46
2017-08-15T01:00:56.099Z,958.43
2017-08-15T01:01:56.079Z,958.43
2017-08-15T01:02:56.073Z,958.41
2017-08-15T01:03:56.081Z,958.42
2017-08-15T01:04:56.063Z,958.39
2017-08-15T01:05:56.058Z,958.44
2017-08-15T01:06:56.063Z,958.41
2017-08-15T01:07:56.048Z,958.42
2017-08-15T01:08:56.045Z,958.43
2017-08-15T01:09:56.038Z,958.38
2017-08-15T01:10:56.034Z,958.4
2017-08-15T01:11:56.034Z,958.47
2017-08-15T01:12:56.023Z,958.41
2017-08-15T01:13:56.018Z,958.41
2017-08-15T01:14:56.014Z,958.43
2017-08-15T01:15:56.013Z,958.37
2017-08-15T01:16:56.003Z,958.34
2017-08-15T01:17:55.999Z,958.36
2017-08-15T01:18:55.994Z,958.38
2017-08-15T01:19:55.995Z,958.33
2017-08-15T01:20:55.989Z,958.35
2017-08-15T01:21:55.997Z,958.29
2017-08-15T01:22:55.974Z,958.3
2017-08-15T01:23:55.981Z,958.33
2017-08-15T01:24:55.964Z,958.27
2017-08-15T01:25:55.961Z,958.27
2017-08-15T01:26:55.954Z,958.26
2017-08-15T01:27:55.949Z,958.24
2017-08-15T01:28:55.944Z,958.25
2017-08-15T01:29:55.937Z,958.2
2017-08-15T01:30:55.933Z,958.25
2017-08-15T01:31:55.944Z,958.23
2017-08-15T01:32:55.923Z,958.23
2017-08-15T01:33:55.919Z,958.24
2017-08-15T01:34:55.916Z,958.22
2017-08-15T01:35:55.908Z,958.2
2017-08-15T01:36:55.904Z,958.19
2017-08-15T01:37:55.898Z,958.19
2017-08-15T01:38:55.892Z,958.17
2017-08-15T01:39:55.888Z,958.21
2017-08-15T01:40:55.881Z,958.24
2017-08-15T01:41:55.877Z,958.21
2017-08-15T01:42:55.872Z,958.21
2017-08-15T01:43:55.867Z,958.23
2017-08-15T01:44:55.861Z,958.16
2017-08-15T01:45:55.857Z,958.13
2017-08-15T01:46:55.851Z,958.13
2017-08-15T01:47:55.846Z,958.08
2017-08-15T01:48:55.841Z,958.12
2017-08-15T01:49:55.836Z,958.11
2017-08-15T01:50:55.831Z,958.13
2017-08-15T01:51:55.826Z,958.15
2017-08-15T01:52:55.819Z,958.12
2017-08-15T01:53:55.816Z,958.09
2017-08-15T01:54:55.810Z,958.12
2017-08-15T01:55:55.805Z,958.13
2017-08-15T01:56:55.799Z,958.1
2017-08-15T01:57:55.796Z,958.12
2017-08-15T01:58:55.789Z,958.13
2017-08-15T01:59:55.783Z,958.06
2017-08-15T02:00:55.779Z,958.06
2017-08-15T02:01:55.775Z,958.04
2017-08-15T02:02:55.768Z,958.04
2017-08-15T02:03:55.763Z,958.04
2017-08-15T02:04:55.758Z,958.04
2017-08-15T02:05:55.753Z,958.05
2017-08-15T02:06:55.747Z,958.05
2017-08-15T02:07:55.743Z,958.06
2017-08-15T02:08:55.736Z,958.04
2017-08-15T02:09:55.753Z,958.03
2017-08-15T02:10:55.727Z,958.03
2017-08-15T02:11:55.736Z,958.05
2017-08-15T02:12:55.718Z,958.01
2017-08-15T02:13:55.712Z,958.02
2017-08-15T02:14:55.707Z,958
2017-08-15T02:15:55.701Z,958.04
2017-08-15T02:16:55.696Z,958.06
2017-08-15T02:17:55.705Z,958.02
2017-08-15T02:18:55.685Z,957.95
2017-08-15T02:19:55.680Z,958.02
2017-08-15T02:20:55.675Z,957.99
2017-08-15T02:21:55.670Z,957.95
2017-08-15T02:22:55.666Z,957.88
2017-08-15T02:23:55.661Z,957.88
2017-08-15T02:24:55.655Z,957.89
2017-08-15T02:25:55.649Z,957.85
2017-08-15T02:26:55.644Z,957.83
2017-08-15T02:27:55.662Z,957.88
2017-08-15T02:28:55.633Z,957.95
2017-08-15T02:29:55.627Z,957.95
2017-08-15T02:30:55.624Z,957.94
2017-08-15T02:31:55.621Z,957.91
2017-08-15T02:32:55.612Z,957.86
2017-08-15T02:33:55.608Z,957.85
2017-08-15T02:34:55.602Z,957.83
2017-08-15T02:35:55.596Z,957.82
2017-08-15T02:36:55.614Z,957.85
2017-08-15T02:37:55.587Z,957.87
2017-08-15T02:38:55.582Z,957.85
2017-08-15T02:39:55.576Z,957.84
2017-08-15T02:40:55.572Z,957.84
2017-08-15T02:41:55.565Z,957.86
2017-08-15T02:42:55.581Z,957.8
2017-08-15T02:43:55.758Z,957.81
2017-08-15T02:44:55.554Z,957.79
2017-08-15T02:45:55.546Z,957.77
2017-08-15T02:46:55.539Z,957.8
2017-08-15T02:47:55.533Z,957.77
2017-08-15T02:48:55.529Z,957.79
2017-08-15T02:49:55.523Z,957.79
2017-08-15T02:50:55.523Z,957.85
2017-08-15T02:51:55.521Z,957.81
2017-08-15T02:52:55.508Z,957.76
2017-08-15T02:53:55.501Z,957.78
2017-08-15T02:54:55.497Z,957.79
2017-08-15T02:55:55.493Z,957.8
2017-08-15T02:56:55.486Z,957.83
2017-08-15T02:57:55.480Z,957.82
2017-08-15T02:58:55.478Z,957.82
2017-08-15T02:59:55.478Z,957.84
2017-08-15T03:00:55.464Z,957.84
2017-08-15T03:01:55.459Z,957.83
2017-08-15T03:02:55.454Z,957.83
2017-08-15T03:03:55.453Z,957.84
2017-08-15T03:04:55.442Z,957.78
2017-08-15T03:05:55.437Z,957.81
2017-08-15T03:06:55.433Z,957.8
2017-08-15T03:07:55.429Z,957.77
2017-08-15T03:08:55.422Z,957.77
2017-08-15T03:09:55.417Z,957.78
2017-08-15T03:10:55.413Z,957.74
2017-08-15T03:11:55.408Z,957.72
2017-08-15T03:12:55.403Z,957.71
2017-08-15T03:13:55.400Z,957.74
2017-08-15T03:14:55.391Z,957.75
2017-08-15T03:15:55.385Z,957.72
2017-08-15T03:16:55.380Z,957.67
2017-08-15T03:17:55.375Z,957.68
2017-08-15T03:18:55.372Z,957.7
2017-08-15T03:19:55.367Z,957.66
2017-08-15T03:20:55.360Z,957.65
2017-08-15T03:21:55.355Z,957.61
2017-08-15T03:22:55.370Z,957.62
2017-08-15T03:23:55.345Z,957.62
2017-08-15T03:24:55.340Z,957.57
2017-08-15T03:25:55.333Z,957.61
2017-08-15T03:26:55.329Z,957.62
2017-08-15T03:27:55.323Z,957.64
2017-08-15T03:28:55.318Z,957.68
2017-08-15T03:29:55.312Z,957.7
2017-08-15T03:30:55.308Z,957.67
2017-08-15T03:31:55.302Z,957.74
2017-08-15T03:32:55.298Z,957.7
2017-08-15T03:33:55.310Z,957.71
2017-08-15T03:34:55.290Z,957.7
2017-08-15T03:35:55.282Z,957.71
2017-08-15T03:36:55.277Z,957.72
2017-08-15T03:37:55.271Z,957.7
2017-08-15T03:38:55.267Z,957.7
2017-08-15T03:39:55.262Z,957.77
2017-08-15T03:40:55.256Z,957.77
2017-08-15T03:41:55.252Z,957.72
2017-08-15T03:42:55.246Z,957.73
2017-08-15T03:43:55.242Z,957.75
2017-08-15T03:44:55.236Z,957.74
2017-08-15T03:45:55.251Z,957.72
2017-08-15T03:46:55.226Z,957.74
2017-08-15T03:47:55.221Z,957.73
2017-08-15T03:48:55.215Z,957.75
2017-08-15T03:49:55.210Z,957.71
2017-08-15T03:50:55.204Z,957.76
2017-08-15T03:51:55.201Z,957.72
2017-08-15T03:52:55.195Z,957.72
2017-08-15T03:53:55.190Z,957.71
2017-08-15T03:54:55.199Z,957.68
2017-08-15T03:55:55.181Z,957.72
2017-08-15T03:56:55.175Z,957.77
2017-08-15T03:57:55.169Z,957.72
2017-08-15T03:58:55.166Z,957.73
2017-08-15T03:59:55.161Z,957.72
2017-08-15T04:00:55.155Z,957.77
2017-08-15T04:01:55.152Z,957.72
2017-08-15T04:02:55.146Z,957.73
2017-08-15T04:03:55.141Z,957.75
2017-08-15T04:04:55.136Z,957.76
2017-08-15T04:05:55.131Z,957.73
2017-08-15T04:06:55.126Z,957.76
2017-08-15T04:07:55.121Z,957.79
2017-08-15T04:08:55.117Z,957.76
2017-08-15T04:09:55.113Z,957.75
2017-08-15T04:10:55.109Z,957.75
2017-08-15T04:11:55.105Z,957.76
2017-08-15T04:12:55.097Z,957.79
2017-08-15T04:13:55.093Z,957.77
2017-08-15T04:14:55.088Z,957.78
2017-08-15T04:15:55.082Z,957.76
2017-08-15T04:16:55.079Z,957.78
2017-08-15T04:17:55.074Z,957.81
2017-08-15T04:18:55.069Z,957.83
2017-08-15T04:19:55.065Z,957.88
2017-08-15T04:20:55.061Z,957.83
2017-08-15T04:21:55.056Z,957.84
2017-08-15T04:22:55.051Z,957.85
2017-08-15T04:23:55.048Z,957.85
2017-08-15T04:24:55.042Z,957.8
2017-08-15T04:25:55.039Z,957.83
2017-08-15T04:26:55.034Z,957.85
2017-08-15T04:27:55.029Z,957.9
2017-08-15T04:28:55.025Z,957.88
2017-08-15T04:29:55.020Z,957.87
2017-08-15T04:30:55.017Z,957.89
2017-08-15T04:31:55.017Z,957.9
2017-08-15T04:32:55.020Z,957.89
2017-08-15T04:33:55.004Z,957.89
2017-08-15T04:34:55.000Z,957.9
2017-08-15T04:35:54.996Z,957.9
2017-08-15T04:36:54.991Z,957.91
2017-08-15T04:37:54.988Z,957.96
2017-08-15T04:38:54.984Z,957.91
2017-08-15T04:39:54.979Z,957.92
2017-08-15T04:40:54.973Z,957.86
2017-08-15T04:41:54.971Z,957.91
2017-08-15T04:42:54.968Z,957.95
2017-08-15T04:43:54.963Z,957.99
2017-08-15T04:44:54.959Z,957.95
2017-08-15T04:45:54.955Z,957.96
2017-08-15T04:46:54.974Z,957.97
2017-08-15T04:47:54.946Z,957.97
2017-08-15T04:48:54.953Z,958
2017-08-15T04:49:54.939Z,958.03
2017-08-15T04:50:54.935Z,958.05
2017-08-15T04:51:54.932Z,958.05
2017-08-15T04:52:54.927Z,958.04
2017-08-15T04:53:54.925Z,958.09
2017-08-15T04:54:54.919Z,958.06
2017-08-15T04:55:54.916Z,958.07
2017-08-15T04:56:54.913Z,958.06
2017-08-15T04:57:54.922Z,958.05
2017-08-15T04:58:54.904Z,958.03
2017-08-15T04:59:54.901Z,958.01
2017-08-15T05:00:54.898Z,957.99
2017-08-15T05:01:54.893Z,958.02
2017-08-15T05:02:54.890Z,958
2017-08-15T05:03:54.887Z,957.94
2017-08-15T05:04:54.926Z,957.99
2017-08-15T05:05:54.878Z,957.97
2017-08-15T05:06:54.874Z,957.94
2017-08-15T05:07:54.871Z,957.97
2017-08-15T05:08:54.870Z,957.97
2017-08-15T05:09:54.865Z,957.99
2017-08-15T05:10:54.862Z,957.9
2017-08-15T05:11:54.859Z,957.94
2017-08-15T05:12:54.855Z,957.92
2017-08-15T05:13:54.852Z,957.88
2017-08-15T05:14:54.849Z,957.9
2017-08-15T05:15:54.844Z,957.91
2017-08-15T05:16:54.841Z,957.85
2017-08-15T05:17:54.840Z,957.83
2017-08-15T05:18:54.855Z,957.89
2017-08-15T05:19:54.832Z,957.94
2017-08-15T05:20:54.829Z,957.86
2017-08-15T05:21:54.827Z,957.85
2017-08-15T05:22:54.827Z,957.86
2017-08-15T05:23:54.819Z,957.86
2017-08-15T05:24:54.821Z,957.85
2017-08-15T05:25:54.819Z,957.87
2017-08-15T05:26:54.810Z,957.87
2017-08-15T05:27:54.807Z,957.91
2017-08-15T05:28:54.804Z,957.89
2017-08-15T05:29:54.802Z,957.87
2017-08-15T05:30:54.818Z,957.9
2017-08-15T05:31:54.796Z,957.88
2017-08-15T05:32:54.794Z,957.88
2017-08-15T05:33:54.793Z,957.84
2017-08-15T05:34:54.788Z,957.9
2017-08-15T05:35:54.784Z,957.87
2017-08-15T05:36:54.787Z,957.87
2017-08-15T05:37:54.779Z,957.8
2017-08-15T05:38:54.776Z,957.82
2017-08-15T05:39:54.773Z,957.86
2017-08-15T05:40:54.773Z,957.84
2017-08-15T05:41:54.766Z,957.85
2017-08-15T05:42:54.767Z,957.82
2017-08-15T05:43:54.761Z,957.81
2017-08-15T05:44:54.760Z,957.78
2017-08-15T05:45:54.757Z,957.78
2017-08-15T05:46:54.755Z,957.82
2017-08-15T05:47:54.755Z,957.77
2017-08-15T05:48:54.750Z,957.81
2017-08-15T05:49:54.745Z,957.81
2017-08-15T05:50:54.745Z,957.77
2017-08-15T05:51:54.743Z,957.82
2017-08-15T05:52:54.738Z,957.78
2017-08-15T05:53:54.737Z,957.8
2017-08-15T05:54:54.735Z,957.79
2017-08-15T05:55:54.732Z,957.82
2017-08-15T05:56:54.729Z,957.78
2017-08-15T05:57:54.727Z,957.83
2017-08-15T05:58:54.725Z,957.83
2017-08-15T05:59:54.724Z,957.83
2017-08-15T06:00:54.737Z,957.82
2017-08-15T06:01:54.720Z,957.83
2017-08-15T06:02:54.718Z,957.82
2017-08-15T06:03:54.713Z,957.79
2017-08-15T06:04:54.715Z,957.85
2017-08-15T06:05:54.709Z,957.84
2017-08-15T06:06:54.709Z,957.83
2017-08-15T06:07:54.705Z,957.82
2017-08-15T06:08:54.703Z,957.83
2017-08-15T06:09:54.718Z,957.82
2017-08-15T06:10:54.700Z,957.76
2017-08-15T06:11:54.724Z,957.74
2017-08-15T06:12:54.696Z,957.74
2017-08-15T06:13:54.717Z,957.76
2017-08-15T06:14:54.692Z,957.75
2017-08-15T06:15:54.689Z,957.8
2017-08-15T06:16:54.687Z,957.72
2017-08-15T06:17:54.707Z,957.76
2017-08-15T06:18:54.684Z,957.72
2017-08-15T06:19:54.682Z,957.77
2017-08-15T06:20:54.681Z,957.75
2017-08-15T06:21:54.678Z,957.73
2017-08-15T06:22:54.675Z,957.8
2017-08-15T06:23:54.673Z,957.71
2017-08-15T06:24:54.671Z,957.66
2017-08-15T06:25:54.684Z,957.7
2017-08-15T06:26:54.668Z,957.69
2017-08-15T06:27:54.667Z,957.67
2017-08-15T06:28:54.664Z,957.69
2017-08-15T06:29:54.676Z,957.69
2017-08-15T06:30:54.661Z,957.7
2017-08-15T06:31:54.681Z,957.69
2017-08-15T06:32:54.657Z,957.63
2017-08-15T06:33:54.654Z,957.7
2017-08-15T06:34:54.654Z,957.7
2017-08-15T06:35:54.651Z,957.6
2017-08-15T06:36:54.649Z,957.6
2017-08-15T06:37:54.647Z,957.6
2017-08-15T06:38:54.645Z,957.63
2017-08-15T06:39:54.661Z,957.63
2017-08-15T06:40:54.651Z,957.62
2017-08-15T06:41:54.640Z,957.61
2017-08-15T06:42:54.638Z,957.7
2017-08-15T06:43:54.636Z,957.65
2017-08-15T06:44:54.636Z,957.69
2017-08-15T06:45:54.654Z,957.67
2017-08-15T06:46:54.632Z,957.55
2017-08-15T06:47:54.629Z,957.6
2017-08-15T06:48:54.628Z,957.57
2017-08-15T06:49:54.626Z,957.6
2017-08-15T06:50:54.625Z,957.57
2017-08-15T06:51:54.622Z,957.57
2017-08-15T06:52:54.621Z,957.6
2017-08-15T06:53:54.620Z,957.66
2017-08-15T06:54:54.619Z,957.62
2017-08-15T06:55:54.616Z,957.63
2017-08-15T06:56:54.629Z,957.6
2017-08-15T06:57:54.618Z,957.66
2017-08-15T06:58:54.630Z,957.66
2017-08-15T06:59:54.614Z,957.68
2017-08-15T07:00:54.612Z,957.73
2017-08-15T07:01:54.613Z,957.72
2017-08-15T07:02:54.611Z,957.73
2017-08-15T07:03:54.612Z,957.73
2017-08-15T07:04:54.614Z,957.8
2017-08-15T07:05:54.613Z,957.79
2017-08-15T07:06:54.626Z,957.81
2017-08-15T07:07:54.616Z,957.9
2017-08-15T07:08:54.619Z,957.93
2017-08-15T07:09:54.619Z,958.01
2017-08-15T07:10:54.622Z,958.06
2017-08-15T07:11:54.624Z,958.18
2017-08-15T07:12:54.626Z,958.48
2017-08-15T07:13:54.628Z,958.46
2017-08-15T07:14:54.632Z,958.29
2017-08-15T07:15:54.638Z,958.17
2017-08-15T07:16:54.649Z,957.89
2017-08-15T07:17:54.643Z,957.79
2017-08-15T07:18:54.646Z,957.67
2017-08-15T07:19:54.665Z,957.65
2017-08-15T07:20:54.653Z,957.67
2017-08-15T07:21:54.658Z,957.61
2017-08-15T07:22:54.689Z,957.6
2017-08-15T07:23:54.667Z,957.68
2017-08-15T07:24:54.671Z,957.7
2017-08-15T07:25:54.676Z,957.77
2017-08-15T07:26:54.697Z,957.83
2017-08-15T07:27:54.686Z,957.97
2017-08-15T07:28:54.690Z,958.21
2017-08-15T07:29:54.696Z,958.39
2017-08-15T07:30:54.702Z,958.61
2017-08-15T07:31:54.706Z,958.42
2017-08-15T07:32:54.713Z,958.28
2017-08-15T07:33:54.753Z,958.42
2017-08-15T07:34:54.733Z,958.69
2017-08-15T07:35:54.727Z,958.43
2017-08-15T07:36:54.733Z,958.22
2017-08-15T07:37:54.739Z,957.69
2017-08-15T07:38:54.747Z,957.46
2017-08-15T07:39:54.749Z,957.34
2017-08-15T07:40:54.771Z,957.34
2017-08-15T07:41:54.760Z,957.34
2017-08-15T07:42:54.765Z,957.35
2017-08-15T07:43:54.775Z,957.33
2017-08-15T07:44:54.817Z,957.39
2017-08-15T07:45:54.843Z,957.38
2017-08-15T07:46:54.809Z,957.37
2017-08-15T07:47:54.793Z,957.31
2017-08-15T07:48:54.876Z,957.3
2017-08-15T07:49:54.823Z,957.34
2017-08-15T07:50:54.914Z,957.33
2017-08-15T07:51:54.814Z,957.32
2017-08-15T07:52:54.960Z,957.3
2017-08-15T07:53:54.879Z,957.3
2017-08-15T07:54:54.846Z,957.25
2017-08-15T07:55:54.834Z,957.25
2017-08-15T07:56:54.837Z,957.22
2017-08-15T07:57:54.858Z,957.24
2017-08-15T07:58:54.887Z,957.34
2017-08-15T07:59:54.849Z,957.34
2017-08-15T08:00:54.977Z,957.29
2017-08-15T08:01:54.880Z,957.33
2017-08-15T08:02:54.863Z,957.33
2017-08-15T08:03:54.903Z,957.3
2017-08-15T08:04:54.870Z,957.31
2017-08-15T08:05:54.920Z,957.27
2017-08-15T08:06:54.897Z,957.28
2017-08-15T08:07:54.909Z,957.27
2017-08-15T08:08:54.883Z,957.32
2017-08-15T08:09:54.889Z,957.41
2017-08-15T08:10:54.901Z,957.31
2017-08-15T08:11:54.930Z,957.36
2017-08-15T08:12:54.948Z,957.36
2017-08-15T08:13:54.947Z,957.36
2017-08-15T08:14:54.918Z,957.26
2017-08-15T08:15:54.922Z,957.35
2017-08-15T08:16:54.911Z,957.35
2017-08-15T08:17:54.977Z,957.36
2017-08-15T08:18:54.919Z,957.34
2017-08-15T08:19:54.930Z,957.4
2017-08-15T08:20:54.941Z,957.37
2017-08-15T08:21:54.928Z,957.41
2017-08-15T08:22:54.929Z,957.39
2017-08-15T08:23:54.994Z,957.36
2017-08-15T08:24:54.982Z,957.34
2017-08-15T08:25:54.987Z,957.32
2017-08-15T08:26:54.943Z,957.38
2017-08-15T08:27:55.034Z,957.28
2017-08-15T08:28:54.957Z,957.27
2017-08-15T08:29:54.994Z,957.36
2017-08-15T08:30:54.967Z,957.26
2017-08-15T08:31:54.962Z,957.35
2017-08-15T08:32:54.963Z,957.37
2017-08-15T08:33:55.011Z,957.39
2017-08-15T08:34:54.981Z,957.38
2017-08-15T08:35:54.989Z,957.39
2017-08-15T08:36:54.994Z,957.4
2017-08-15T08:37:55.007Z,957.38
2017-08-15T08:38:55.037Z,957.44
2017-08-15T08:39:55.002Z,957.39
2017-08-15T08:40:55.011Z,957.43
2017-08-15T08:41:55.008Z,957.5
2017-08-15T08:42:54.995Z,957.48
2017-08-15T08:43:55.060Z,957.48
2017-08-15T08:44:55.011Z,957.52
2017-08-15T08:45:55.029Z,957.54
2017-08-15T08:46:55.011Z,957.48
2017-08-15T08:47:55.030Z,957.53
2017-08-15T08:48:55.016Z,957.6
2017-08-15T08:49:55.015Z,957.6
2017-08-15T08:50:55.032Z,957.55
2017-08-15T08:51:55.022Z,957.58
2017-08-15T08:52:55.024Z,957.58
2017-08-15T08:53:55.027Z,957.59
2017-08-15T08:54:55.030Z,957.58
2017-08-15T08:55:55.030Z,957.56
2017-08-15T08:56:55.056Z,957.56
2017-08-15T08:57:55.037Z,957.54
2017-08-15T08:58:55.040Z,957.54
2017-08-15T08:59:55.058Z,957.47
2017-08-15T09:00:55.045Z,957.48
2017-08-15T09:01:55.046Z,957.46
2017-08-15T09:02:55.048Z,957.47
2017-08-15T09:03:55.053Z,957.49
2017-08-15T09:04:55.055Z,957.47
2017-08-15T09:05:55.058Z,957.49
2017-08-15T09:06:55.058Z,957.46
2017-08-15T09:07:55.063Z,957.42
2017-08-15T09:08:55.064Z,957.44
2017-08-15T09:09:55.086Z,957.48
2017-08-15T09:10:55.070Z,957.42
2017-08-15T09:11:55.077Z,957.44
2017-08-15T09:12:55.074Z,957.46
2017-08-15T09:13:55.091Z,957.43
2017-08-15T09:14:55.092Z,957.45
2017-08-15T09:15:55.081Z,957.41
2017-08-15T09:16:55.083Z,957.39
2017-08-15T09:17:55.085Z,957.4
2017-08-15T09:18:55.088Z,957.4
2017-08-15T09:19:55.090Z,957.38
2017-08-15T09:20:55.093Z,957.32
2017-08-15T09:21:55.095Z,957.36
2017-08-15T09:22:55.097Z,957.44
2017-08-15T09:23:55.101Z,957.43
2017-08-15T09:24:55.118Z,957.43
2017-08-15T09:25:55.105Z,957.47
2017-08-15T09:26:55.108Z,957.46
2017-08-15T09:27:55.110Z,957.38
2017-08-15T09:28:55.113Z,957.41
2017-08-15T09:29:55.115Z,957.45
2017-08-15T09:30:55.118Z,957.41
2017-08-15T09:31:55.122Z,957.45
2017-08-15T09:32:55.127Z,957.44
2017-08-15T09:33:55.125Z,957.45
2017-08-15T09:34:55.128Z,957.38
2017-08-15T09:35:55.131Z,957.38
2017-08-15T09:36:55.132Z,957.32
2017-08-15T09:37:55.136Z,957.4
2017-08-15T09:38:55.139Z,957.39
2017-08-15T09:39:55.140Z,957.39
2017-08-15T09:40:55.144Z,957.33
2017-08-15T09:41:55.146Z,957.34
2017-08-15T09:42:55.149Z,957.39
2017-08-15T09:43:55.152Z,957.39
2017-08-15T09:44:55.154Z,957.36
2017-08-15T09:45:55.157Z,957.39
2017-08-15T09:46:55.159Z,957.31
2017-08-15T09:47:55.163Z,957.38
2017-08-15T09:48:55.166Z,957.37
2017-08-15T09:49:55.168Z,957.29
2017-08-15T09:50:55.180Z,957.4
2017-08-15T09:51:55.173Z,957.46
2017-08-15T09:52:55.185Z,957.43
2017-08-15T09:53:55.181Z,957.43
2017-08-15T09:54:55.196Z,957.46
2017-08-15T09:55:55.186Z,957.42
2017-08-15T09:56:55.189Z,957.5
2017-08-15T09:57:55.191Z,957.49
2017-08-15T09:58:55.194Z,957.54
2017-08-15T09:59:55.197Z,957.6
2017-08-15T10:00:55.200Z,957.61
2017-08-15T10:01:55.202Z,957.62
2017-08-15T10:02:55.205Z,957.61
2017-08-15T10:03:55.207Z,957.62
2017-08-15T10:04:55.213Z,957.67
2017-08-15T10:05:55.217Z,957.71
2017-08-15T10:06:55.218Z,957.76
2017-08-15T10:07:55.221Z,957.67
2017-08-15T10:08:55.222Z,957.69
2017-08-15T10:09:55.226Z,957.67
2017-08-15T10:10:55.233Z,957.71
2017-08-15T10:11:55.233Z,957.7
2017-08-15T10:12:55.236Z,957.72
2017-08-15T10:13:55.244Z,957.71
2017-08-15T10:14:55.242Z,957.69
2017-08-15T10:15:55.246Z,957.6
2017-08-15T10:16:55.269Z,957.7
2017-08-15T10:17:55.268Z,957.69
2017-08-15T10:18:55.255Z,957.66
2017-08-15T10:19:55.257Z,957.72
2017-08-15T10:20:55.261Z,957.7
2017-08-15T10:21:55.265Z,957.67
2017-08-15T10:22:55.267Z,957.61
2017-08-15T10:23:55.270Z,957.55
2017-08-15T10:24:55.274Z,957.63
2017-08-15T10:25:55.277Z,957.65
2017-08-15T10:26:55.282Z,957.64
2017-08-15T10:27:55.283Z,957.66
2017-08-15T10:28:55.300Z,957.61
2017-08-15T10:29:55.301Z,957.61
2017-08-15T10:30:55.300Z,957.58
2017-08-15T10:31:55.310Z,957.53
2017-08-15T10:32:55.304Z,957.57
2017-08-15T10:33:55.321Z,957.52
2017-08-15T10:34:55.307Z,957.53
2017-08-15T10:35:55.311Z,957.53
2017-08-15T10:36:55.315Z,957.55
2017-08-15T10:37:55.317Z,957.49
2017-08-15T10:38:55.328Z,957.53
2017-08-15T10:39:55.327Z,957.48
2017-08-15T10:40:55.332Z,957.47
2017-08-15T10:41:55.333Z,957.53
2017-08-15T10:42:55.337Z,957.55
2017-08-15T10:43:55.340Z,957.49
2017-08-15T10:44:55.344Z,957.52
2017-08-15T10:45:55.346Z,957.5
2017-08-15T10:46:55.371Z,957.49
2017-08-15T10:47:55.354Z,957.52
2017-08-15T10:48:55.357Z,957.51
2017-08-15T10:49:55.360Z,957.52
2017-08-15T10:50:55.364Z,957.49
2017-08-15T10:51:55.370Z,957.44
2017-08-15T10:52:55.372Z,957.43
2017-08-15T10:53:55.385Z,957.44
2017-08-15T10:54:55.379Z,957.44
2017-08-15T10:55:55.383Z,957.43
2017-08-15T10:56:55.387Z,957.4
2017-08-15T10:57:55.392Z,957.41
2017-08-15T10:58:55.393Z,957.4
2017-08-15T10:59:55.399Z,957.44
2017-08-15T11:00:55.400Z,957.4
2017-08-15T11:01:55.406Z,957.39
2017-08-15T11:02:55.409Z,957.39
2017-08-15T11:03:55.412Z,957.4
2017-08-15T11:04:55.417Z,957.38
2017-08-15T11:05:55.420Z,957.35
2017-08-15T11:06:55.424Z,957.38
2017-08-15T11:07:55.427Z,957.37
2017-08-15T11:08:55.431Z,957.34
2017-08-15T11:09:55.436Z,957.31
2017-08-15T11:10:55.438Z,957.3
2017-08-15T11:11:55.443Z,957.32
2017-08-15T11:12:55.445Z,957.29
2017-08-15T11:13:55.471Z,957.32
2017-08-15T11:14:55.453Z,957.32
2017-08-15T11:15:55.456Z,957.25
2017-08-15T11:16:55.479Z,957.27
2017-08-15T11:17:55.468Z,957.36
2017-08-15T11:18:55.469Z,957.35
2017-08-15T11:19:55.473Z,957.35
2017-08-15T11:20:55.477Z,957.39
2017-08-15T11:21:55.481Z,957.43
2017-08-15T11:22:55.484Z,957.38
2017-08-15T11:23:55.489Z,957.37
2017-08-15T11:24:55.492Z,957.4
2017-08-15T11:25:55.496Z,957.41
2017-08-15T11:26:55.499Z,957.32
2017-08-15T11:27:55.505Z,957.32
2017-08-15T11:28:55.508Z,957.34
2017-08-15T11:29:55.511Z,957.28
2017-08-15T11:30:55.515Z,957.25
2017-08-15T11:31:55.519Z,957.22
2017-08-15T11:32:55.522Z,957.2
2017-08-15T11:33:55.527Z,957.17
2017-08-15T11:34:55.532Z,957.18
2017-08-15T11:35:55.540Z,957.14
2017-08-15T11:36:55.538Z,957.14
2017-08-15T11:37:55.541Z,957.14
2017-08-15T11:38:55.545Z,957.11
2017-08-15T11:39:55.550Z,957.07
2017-08-15T11:40:55.555Z,957.12
2017-08-15T11:41:55.557Z,957.09
2017-08-15T11:42:55.586Z,957.06
2017-08-15T11:43:55.564Z,957.04
2017-08-15T11:44:55.571Z,956.99
2017-08-15T11:45:55.573Z,956.95
2017-08-15T11:46:55.578Z,956.83
2017-08-15T11:47:55.580Z,956.85
2017-08-15T11:48:55.585Z,956.8
2017-08-15T11:49:55.589Z,956.81
2017-08-15T11:50:55.593Z,956.84
2017-08-15T11:51:55.597Z,956.84
2017-08-15T11:52:55.601Z,956.85
2017-08-15T11:53:55.624Z,956.88
2017-08-15T11:54:55.622Z,956.89
2017-08-15T11:55:55.614Z,956.84
2017-08-15T11:56:55.630Z,956.83
2017-08-15T11:57:55.621Z,956.84
2017-08-15T11:58:55.623Z,956.93
2017-08-15T11:59:55.633Z,956.89
2017-08-15T12:00:55.633Z,956.89
2017-08-15T12:01:55.635Z,956.89
2017-08-15T12:02:55.640Z,956.89
2017-08-15T12:03:55.645Z,956.87
2017-08-15T12:04:55.648Z,956.83
2017-08-15T12:05:55.651Z,956.79
2017-08-15T12:06:55.656Z,956.88
2017-08-15T12:07:55.660Z,956.91
2017-08-15T12:08:55.664Z,956.94
2017-08-15T12:09:55.870Z,956.91
2017-08-15T12:10:55.671Z,956.85
2017-08-15T12:11:55.675Z,956.83
2017-08-15T12:12:55.678Z,956.85
2017-08-15T12:13:55.683Z,956.82
2017-08-15T12:14:55.688Z,956.91
2017-08-15T12:15:55.693Z,956.86
2017-08-15T12:16:55.696Z,956.86
2017-08-15T12:17:55.700Z,956.91
2017-08-15T12:18:55.702Z,956.88
2017-08-15T12:19:55.707Z,956.89
2017-08-15T12:20:55.710Z,956.91
2017-08-15T12:21:55.715Z,956.83
2017-08-15T12:22:55.718Z,956.81
2017-08-15T12:23:55.724Z,956.81
2017-08-15T12:24:55.734Z,956.85
2017-08-15T12:25:55.732Z,956.89
2017-08-15T12:26:55.735Z,956.9
2017-08-15T12:27:55.741Z,956.89
2017-08-15T12:28:55.743Z,956.86
2017-08-15T12:29:55.747Z,956.81
2017-08-15T12:30:55.756Z,956.86
2017-08-15T12:31:55.772Z,956.84